Time;durP1;ratioP1;P1;durP2;ratioP2;P2;SDS_P1;SDS_P2;PMS_P1;PMS_P2;Temp;Humidity;BMP_temperature;BMP_pressure;BME280_temperature;BME280_humidity;BME280_pressure;Samples;Min_cycle;Max_cycle;Signal;HPM_P1;HPM_P2
2024/04/01 05:02:54;;;;;;;5.07;2.67;;;;;;;;;;4991198;28;20453;-77
2024/04/01 05:05:20;;;;;;;4.40;2.83;;;;;;;;;;4992753;28;20419;-78
2024/04/01 05:07:46;;;;;;;8.90;2.43;;;;;;;;;;4992952;28;20490;-75
2024/04/01 05:10:13;;;;;;;3.40;2.30;;;;;;;;;;4993692;28;20781;-79
2024/04/01 05:12:39;;;;;;;4.17;2.63;;;;;;;;;;5012547;28;20458;-78
2024/04/01 05:15:08;;;;;;;6.10;2.90;;;;;;;;;;5012583;28;20422;-75
2024/04/01 05:17:34;;;;;;;6.27;2.83;;;;;;;;;;5012681;28;20444;-76
2024/04/01 05:20:00;;;;;;;6.00;2.87;;;;;;;;;;5012487;28;20497;-76
2024/04/01 05:22:27;;;;;;;10.70;3.00;;;;;;;;;;5012315;28;20433;-76
2024/04/01 05:24:53;;;;;;;5.40;3.60;;;;;;;;;;5012117;28;20422;-76
2024/04/01 05:27:20;;;;;;;10.80;4.07;;;;;;;;;;4994770;28;20498;-76
2024/04/01 05:29:46;;;;;;;10.03;4.57;;;;;;;;;;4994706;28;20508;-75
2024/04/01 05:32:12;;;;;;;8.97;3.80;;;;;;;;;;5012213;28;20485;-76
2024/04/01 05:34:38;;;;;;;8.60;3.93;;;;;;;;;;4994517;28;20458;-76
2024/04/01 05:37:05;;;;;;;7.50;4.00;;;;;;;;;;5012049;28;20406;-76
2024/04/01 05:39:31;;;;;;;6.50;4.43;;;;;;;;;;5012194;28;20525;-76
2024/04/01 05:41:57;;;;;;;11.50;4.53;;;;;;;;;;5012074;28;20426;-75
2024/04/01 05:44:23;;;;;;;6.50;4.20;;;;;;;;;;5011799;28;20414;-75
2024/04/01 05:46:49;;;;;;;9.23;4.53;;;;;;;;;;5012071;28;20902;-75
2024/04/01 05:49:15;;;;;;;12.80;4.40;;;;;;;;;;5011963;28;20417;-75
2024/04/01 05:51:41;;;;;;;9.00;4.97;;;;;;;;;;5011954;28;20516;-75
2024/04/01 05:54:08;;;;;;;6.97;5.13;;;;;;;;;;5011734;28;20460;-75
2024/04/01 05:56:34;;;;;;;17.13;5.00;;;;;;;;;;5011964;28;20421;-75
2024/04/01 05:59:00;;;;;;;10.03;5.37;;;;;;;;;;5012121;28;20410;-76
2024/04/01 06:01:26;;;;;;;7.67;5.30;;;;;;;;;;5011893;28;20805;-75
2024/04/01 06:03:52;;;;;;;10.80;5.70;;;;;;;;;;5011947;28;20895;-74
2024/04/01 06:06:18;;;;;;;7.57;4.50;;;;;;;;;;5011934;28;20421;-75
2024/04/01 06:08:45;;;;;;;12.57;5.20;;;;;;;;;;5011953;28;20460;-75
2024/04/01 06:11:11;;;;;;;12.70;5.50;;;;;;;;;;5012102;28;20441;-75
2024/04/01 06:13:37;;;;;;;14.40;5.57;;;;;;;;;;5011587;28;20473;-74
2024/04/01 06:16:03;;;;;;;9.03;4.53;;;;;;;;;;5014878;28;20457;-75
2024/04/01 06:18:29;;;;;;;7.87;4.83;;;;;;;;;;5015698;28;20784;-75
2024/04/01 06:20:55;;;;;;;9.37;5.00;;;;;;;;;;5015624;28;20433;-75
2024/04/01 06:23:21;;;;;;;7.53;4.50;;;;;;;;;;5015363;28;20753;-75
2024/04/01 06:25:47;;;;;;;6.60;4.00;;;;;;;;;;5015205;28;20417;-75
2024/04/01 06:28:13;;;;;;;16.73;4.37;;;;;;;;;;5015339;28;20410;-75
2024/04/01 06:30:39;;;;;;;7.70;5.30;;;;;;;;;;5015387;28;20967;-76
2024/04/01 06:33:05;;;;;;;6.10;3.80;;;;;;;;;;5015257;28;20862;-75
2024/04/01 06:35:31;;;;;;;10.80;4.50;;;;;;;;;;5014997;28;20444;-75
2024/04/01 06:37:58;;;;;;;6.40;4.60;;;;;;;;;;4997659;28;20421;-75
2024/04/01 06:40:24;;;;;;;8.27;4.90;;;;;;;;;;4997593;28;20426;-75
2024/04/01 06:42:50;;;;;;;7.00;4.70;;;;;;;;;;5015166;28;20417;-76
2024/04/01 06:45:16;;;;;;;10.47;5.20;;;;;;;;;;5014893;28;20410;-76
2024/04/01 06:47:45;;;;;;;7.17;4.27;;;;;;;;;;5015003;28;20413;-76
2024/04/01 06:50:11;;;;;;;9.03;5.27;;;;;;;;;;5014925;28;20441;-76
2024/04/01 06:52:37;;;;;;;9.90;4.70;;;;;;;;;;5014965;28;20503;-76
2024/04/01 06:55:04;;;;;;;16.00;4.30;;;;;;;;;;4997162;28;20422;-76
2024/04/01 06:57:30;;;;;;;7.00;4.10;;;;;;;;;;5015249;28;20950;-75
2024/04/01 06:59:56;;;;;;;3.27;3.13;;;;;;;;;;5015094;28;20402;-75
2024/04/01 07:02:22;;;;;;;7.03;3.10;;;;;;;;;;5014737;28;20456;-75
2024/04/01 07:04:48;;;;;;;9.23;3.10;;;;;;;;;;5014617;28;20457;-75
2024/04/01 07:07:14;;;;;;;5.40;3.57;;;;;;;;;;5014849;28;20413;-75
2024/04/01 07:09:40;;;;;;;3.83;3.10;;;;;;;;;;5014825;28;20422;-75
2024/04/01 07:12:06;;;;;;;5.30;3.23;;;;;;;;;;5014662;28;20456;-76
2024/04/01 07:14:32;;;;;;;4.30;2.63;;;;;;;;;;4996844;28;20698;-75
2024/04/01 07:16:58;;;;;;;5.27;3.30;;;;;;;;;;4997308;28;20788;-75
2024/04/01 07:19:24;;;;;;;3.77;2.70;;;;;;;;;;5015031;28;20602;-76
2024/04/01 07:21:50;;;;;;;6.97;2.83;;;;;;;;;;5014679;28;20440;-76
2024/04/01 07:24:16;;;;;;;3.90;2.50;;;;;;;;;;4996861;28;20789;-76
2024/04/01 07:26:42;;;;;;;3.20;2.53;;;;;;;;;;5014441;28;20441;-76
2024/04/01 07:29:08;;;;;;;5.03;2.13;;;;;;;;;;5014591;28;20418;-75
2024/04/01 07:31:34;;;;;;;2.13;1.70;;;;;;;;;;5014394;28;20440;-75
2024/04/01 07:34:00;;;;;;;2.80;1.47;;;;;;;;;;5013940;28;20556;-75
2024/04/01 07:36:27;;;;;;;0.87;0.87;;;;;;;;;;5014605;28;20410;-75
2024/04/01 07:38:53;;;;;;;1.40;1.30;;;;;;;;;;5014099;28;20410;-75
2024/04/01 07:41:19;;;;;;;1.80;1.70;;;;;;;;;;5014050;28;20437;-75
2024/04/01 07:43:45;;;;;;;1.87;1.33;;;;;;;;;;5013657;28;20414;-75
2024/04/01 07:46:11;;;;;;;2.03;1.30;;;;;;;;;;5014045;28;20421;-76
2024/04/01 07:48:37;;;;;;;1.33;1.23;;;;;;;;;;5013845;28;20493;-75
2024/04/01 07:51:06;;;;;;;1.10;0.90;;;;;;;;;;5013938;28;20844;-76
2024/04/01 07:53:33;;;;;;;2.07;1.00;;;;;;;;;;5013580;28;20453;-76
2024/04/01 07:55:59;;;;;;;1.67;1.40;;;;;;;;;;5013765;28;20410;-75
2024/04/01 07:58:25;;;;;;;1.60;1.00;;;;;;;;;;5013722;28;20475;-75
2024/04/01 08:00:51;;;;;;;1.50;1.40;;;;;;;;;;5013420;28;20444;-75
2024/04/01 08:03:17;;;;;;;1.67;1.13;;;;;;;;;;5013593;28;20414;-75
2024/04/01 08:05:43;;;;;;;1.70;1.43;;;;;;;;;;5013607;28;20411;-75
2024/04/01 08:08:09;;;;;;;1.33;1.23;;;;;;;;;;5013447;28;20464;-75
2024/04/01 08:10:35;;;;;;;1.60;1.03;;;;;;;;;;5013492;28;20472;-75
2024/04/01 08:13:01;;;;;;;5.70;1.13;;;;;;;;;;5013366;28;20493;-75
2024/04/01 08:15:27;;;;;;;1.50;1.20;;;;;;;;;;5013216;28;20492;-75
2024/04/01 08:17:53;;;;;;;1.03;0.90;;;;;;;;;;5013357;28;20406;-75
2024/04/01 08:20:19;;;;;;;1.30;1.20;;;;;;;;;;5013335;28;20409;-75
2024/04/01 08:22:45;;;;;;;3.03;1.60;;;;;;;;;;5013234;28;20440;-75
2024/04/01 08:25:13;;;;;;;1.00;0.90;;;;;;;;;;5013223;28;20449;-75
2024/04/01 08:27:39;;;;;;;1.10;1.00;;;;;;;;;;5013144;28;20493;-75
2024/04/01 08:30:05;;;;;;;1.07;0.90;;;;;;;;;;5013149;28;20508;-75
2024/04/01 08:32:32;;;;;;;6.03;1.00;;;;;;;;;;5012769;28;20553;-76
2024/04/01 08:34:58;;;;;;;1.77;1.00;;;;;;;;;;5012717;28;20414;-76
2024/04/01 08:37:24;;;;;;;1.20;1.10;;;;;;;;;;5012223;28;20421;-75
2024/04/01 08:39:50;;;;;;;1.23;1.13;;;;;;;;;;5014620;28;20427;-76
2024/04/01 08:42:19;;;;;;;2.20;1.00;;;;;;;;;;5013422;28;20437;-75
2024/04/01 08:44:48;;;;;;;1.37;0.97;;;;;;;;;;5013739;28;20409;-76
2024/04/01 08:47:15;;;;;;;1.13;1.00;;;;;;;;;;5014279;28;20441;-75
2024/04/01 08:49:54;;;;;;;1.57;1.10;;;;;;;;;;5018527;28;20453;-76
2024/04/01 08:52:23;;;;;;;1.37;1.00;;;;;;;;;;5037035;28;20480;-76
2024/04/01 08:54:50;;;;;;;1.27;1.17;;;;;;;;;;5036593;28;20452;-76
2024/04/01 08:57:16;;;;;;;1.33;1.00;;;;;;;;;;5037036;28;20418;-76
2024/04/01 08:59:43;;;;;;;1.73;1.13;;;;;;;;;;5037299;28;20418;-75
2024/04/01 09:02:09;;;;;;;1.70;1.00;;;;;;;;;;5016504;28;20446;-75
2024/04/01 09:04:35;;;;;;;1.70;0.90;;;;;;;;;;5012755;28;20458;-75
2024/04/01 09:07:01;;;;;;;4.83;1.00;;;;;;;;;;5012752;28;20503;-75
2024/04/01 09:09:27;;;;;;;0.77;0.67;;;;;;;;;;5012697;28;20418;-75
2024/04/01 09:11:54;;;;;;;1.43;1.00;;;;;;;;;;5012575;28;20441;-75
2024/04/01 09:14:20;;;;;;;4.60;0.90;;;;;;;;;;5012566;28;20426;-75
2024/04/01 09:16:49;;;;;;;0.87;0.70;;;;;;;;;;5012520;28;20420;-75
2024/04/01 09:19:16;;;;;;;1.57;0.70;;;;;;;;;;5012506;28;20416;-75
2024/04/01 09:21:42;;;;;;;0.70;0.60;;;;;;;;;;5012414;28;20441;-75
2024/04/01 09:24:10;;;;;;;2.00;0.80;;;;;;;;;;5012146;28;20410;-75
2024/04/01 09:26:36;;;;;;;0.90;0.70;;;;;;;;;;5012217;28;20509;-75
2024/04/01 09:29:02;;;;;;;2.10;0.80;;;;;;;;;;5012257;28;20964;-75
2024/04/01 09:31:28;;;;;;;0.83;0.73;;;;;;;;;;5012222;28;20422;-75
2024/04/01 09:33:55;;;;;;;0.93;0.90;;;;;;;;;;5011885;28;20560;-75
2024/04/01 09:36:22;;;;;;;0.70;0.60;;;;;;;;;;5012174;28;20467;-75
2024/04/01 09:38:51;;;;;;;5.23;1.20;;;;;;;;;;5012131;28;20410;-75
2024/04/01 09:41:17;;;;;;;1.17;0.80;;;;;;;;;;5012369;28;20813;-75
2024/04/01 09:43:43;;;;;;;2.07;1.13;;;;;;;;;;5011759;28;20463;-75
2024/04/01 09:46:09;;;;;;;2.17;0.90;;;;;;;;;;5012073;28;20434;-75
2024/04/01 09:48:37;;;;;;;0.60;0.57;;;;;;;;;;5012101;28;20515;-75
2024/04/01 09:51:03;;;;;;;0.83;0.70;;;;;;;;;;5019396;28;20441;-81
2024/04/01 09:53:29;;;;;;;0.80;0.70;;;;;;;;;;5000129;28;20612;-74
2024/04/01 09:56:01;;;;;;;1.33;0.90;;;;;;;;;;5015082;28;20753;-78
2024/04/01 09:58:34;;;;;;;2.70;0.87;;;;;;;;;;5015530;28;20451;-78
2024/04/01 10:01:19;;;;;;;0.80;0.70;;;;;;;;;;5019792;28;20581;-78
2024/04/01 10:03:48;;;;;;;1.17;0.70;;;;;;;;;;4995702;28;20440;-77
2024/04/01 10:06:36;;;;;;;0.83;0.80;;;;;;;;;;5015777;28;20885;-78
2024/04/01 10:09:13;;;;;;;0.80;0.70;;;;;;;;;;5015953;28;20406;-78
2024/04/01 10:11:42;;;;;;;0.70;0.60;;;;;;;;;;4998039;28;20430;-77
2024/04/01 10:14:27;;;;;;;0.77;0.70;;;;;;;;;;5015414;28;20507;-77
2024/04/01 10:17:12;;;;;;;0.77;0.70;;;;;;;;;;5016264;28;20905;-78
2024/04/01 10:19:52;;;;;;;1.17;0.80;;;;;;;;;;5015791;28;20440;-78
2024/04/01 10:22:36;;;;;;;0.67;0.63;;;;;;;;;;5015980;28;20440;-78
2024/04/01 10:25:13;;;;;;;0.90;0.80;;;;;;;;;;5015363;28;20532;-78
2024/04/01 10:27:39;;;;;;;0.70;0.60;;;;;;;;;;5015545;28;20414;-77
2024/04/01 10:30:11;;;;;;;1.07;0.70;;;;;;;;;;5015245;28;20414;-77
2024/04/01 10:32:56;;;;;;;0.70;0.60;;;;;;;;;;4997633;28;20508;-76
2024/04/01 10:35:31;;;;;;;1.30;0.77;;;;;;;;;;5015254;28;20438;-77
2024/04/01 10:38:26;;;;;;;5.23;0.70;;;;;;;;;;5015291;28;20437;-77
2024/04/01 10:41:08;;;;;;;2.00;0.80;;;;;;;;;;5015309;28;20452;-77
2024/04/01 10:43:40;;;;;;;0.73;0.60;;;;;;;;;;5014997;28;20460;-77
2024/04/01 10:46:25;;;;;;;0.73;0.63;;;;;;;;;;5015017;28;20413;-77
2024/04/01 10:49:06;;;;;;;0.90;0.80;;;;;;;;;;5015171;28;20425;-77
2024/04/01 10:51:43;;;;;;;1.50;1.03;;;;;;;;;;5015005;28;20437;-77
2024/04/01 10:54:14;;;;;;;0.60;0.60;;;;;;;;;;5014848;28;20471;-77
2024/04/01 10:56:55;;;;;;;1.23;0.70;;;;;;;;;;4997887;28;20450;-78
2024/04/01 10:59:33;;;;;;;0.77;0.60;;;;;;;;;;5014790;28;20417;-77
2024/04/01 11:01:59;;;;;;;0.80;0.70;;;;;;;;;;4996187;28;20608;-78
2024/04/01 11:04:46;;;;;;;2.23;1.30;;;;;;;;;;4996996;28;20526;-77
2024/04/01 11:07:19;;;;;;;0.70;0.60;;;;;;;;;;4985406;28;20509;-77
2024/04/01 11:09:55;;;;;;;4.30;0.70;;;;;;;;;;5015056;28;20415;-77
2024/04/01 11:12:36;;;;;;;0.90;0.80;;;;;;;;;;5014469;28;20461;-77
2024/04/01 11:15:09;;;;;;;0.90;0.80;;;;;;;;;;4996987;28;20426;-76
2024/04/01 11:17:35;;;;;;;0.80;0.70;;;;;;;;;;5014638;28;20413;-76
2024/04/01 11:20:01;;;;;;;0.60;0.60;;;;;;;;;;5014568;28;20484;-75
2024/04/01 11:22:33;;;;;;;6.30;1.57;;;;;;;;;;5014782;28;20441;-75
2024/04/01 11:25:06;;;;;;;1.67;0.77;;;;;;;;;;5014477;28;20810;-75
2024/04/01 11:27:40;;;;;;;0.60;0.50;;;;;;;;;;5014508;28;20952;-76
2024/04/01 11:30:26;;;;;;;1.60;0.70;;;;;;;;;;5014710;28;20428;-75
2024/04/01 11:33:06;;;;;;;0.93;0.90;;;;;;;;;;5014365;28;20445;-75
2024/04/01 11:35:44;;;;;;;0.80;0.80;;;;;;;;;;5014020;28;20414;-75
2024/04/01 11:38:29;;;;;;;3.80;1.67;;;;;;;;;;4996656;28;20442;-75
2024/04/01 11:40:55;;;;;;;1.03;0.70;;;;;;;;;;5013864;28;21007;-76
2024/04/01 11:43:22;;;;;;;1.00;0.90;;;;;;;;;;5013870;28;20426;-75
2024/04/01 11:45:49;;;;;;;2.67;0.90;;;;;;;;;;5014040;28;21039;-75
2024/04/01 11:48:17;;;;;;;1.10;0.80;;;;;;;;;;5014455;28;20410;-75
2024/04/01 11:50:53;;;;;;;0.67;0.60;;;;;;;;;;5014070;28;20434;-75
2024/04/01 11:53:21;;;;;;;0.90;0.80;;;;;;;;;;4995898;28;20457;-75
2024/04/01 11:56:00;;;;;;;1.70;1.00;;;;;;;;;;4995825;28;20450;-76
2024/04/01 11:58:26;;;;;;;0.70;0.60;;;;;;;;;;5013332;28;20414;-75
2024/04/01 12:00:56;;;;;;;0.70;0.60;;;;;;;;;;5013379;28;20453;-75
2024/04/01 12:03:22;;;;;;;0.70;0.60;;;;;;;;;;5013701;28;20429;-75
2024/04/01 12:05:49;;;;;;;0.60;0.60;;;;;;;;;;5013499;28;20541;-75
2024/04/01 12:08:25;;;;;;;0.83;0.50;;;;;;;;;;5013722;28;20414;-75
2024/04/01 12:10:51;;;;;;;1.30;1.20;;;;;;;;;;4995909;28;20441;-75
2024/04/01 12:13:18;;;;;;;1.20;0.90;;;;;;;;;;5012306;28;20461;-75
2024/04/01 12:15:44;;;;;;;0.73;0.63;;;;;;;;;;5013295;28;20505;-75
2024/04/01 12:18:11;;;;;;;1.37;0.80;;;;;;;;;;5013521;28;20442;-75
2024/04/01 12:20:39;;;;;;;1.53;0.70;;;;;;;;;;5013437;28;20813;-75
2024/04/01 12:23:06;;;;;;;0.80;0.70;;;;;;;;;;5013423;28;20410;-76
2024/04/01 12:25:32;;;;;;;0.80;0.70;;;;;;;;;;5013142;28;20418;-75
2024/04/01 12:28:05;;;;;;;1.33;0.90;;;;;;;;;;5013653;28;20413;-76
2024/04/01 12:30:35;;;;;;;0.70;0.70;;;;;;;;;;5013652;28;20438;-76
2024/04/01 12:33:03;;;;;;;1.43;0.83;;;;;;;;;;5013228;28;20819;-76
2024/04/01 12:35:29;;;;;;;1.07;1.03;;;;;;;;;;5012858;28;20493;-76
2024/04/01 12:37:55;;;;;;;1.23;1.17;;;;;;;;;;5013470;28;20443;-75
2024/04/01 12:40:21;;;;;;;0.73;0.70;;;;;;;;;;5013372;28;20445;-75
2024/04/01 12:42:47;;;;;;;0.67;0.60;;;;;;;;;;5013066;28;20449;-75
2024/04/01 12:45:13;;;;;;;1.50;0.90;;;;;;;;;;5012789;28;20453;-76
2024/04/01 12:47:39;;;;;;;1.20;0.80;;;;;;;;;;5012825;28;20410;-75
2024/04/01 12:50:15;;;;;;;0.70;0.60;;;;;;;;;;5012988;28;20781;-76
2024/04/01 12:52:44;;;;;;;0.80;0.70;;;;;;;;;;5012839;28;20445;-76
2024/04/01 12:55:24;;;;;;;0.70;0.60;;;;;;;;;;5012466;28;20425;-76
2024/04/01 12:57:55;;;;;;;0.60;0.50;;;;;;;;;;5013017;28;20414;-76
2024/04/01 13:00:24;;;;;;;0.60;0.50;;;;;;;;;;5012762;28;20916;-76
2024/04/01 13:02:59;;;;;;;1.03;1.00;;;;;;;;;;5013045;28;20414;-76
2024/04/01 13:05:44;;;;;;;1.90;0.60;;;;;;;;;;4995159;28;20825;-76
2024/04/01 13:08:45;;;;;;;1.80;1.13;;;;;;;;;;5012568;28;20417;-76
2024/04/01 13:11:14;;;;;;;0.80;0.80;;;;;;;;;;4951832;29;20448;-76
2024/04/01 13:13:54;;;;;;;0.83;0.73;;;;;;;;;;5001366;28;20465;-76
2024/04/01 13:16:26;;;;;;;0.70;0.67;;;;;;;;;;5012639;28;20480;-76
2024/04/01 13:19:10;;;;;;;0.80;0.70;;;;;;;;;;5012390;28;20489;-76
2024/04/01 13:21:49;;;;;;;0.70;0.60;;;;;;;;;;5012219;28;20426;-77
2024/04/01 13:24:21;;;;;;;0.60;0.50;;;;;;;;;;5011836;28;20406;-76
2024/04/01 13:26:51;;;;;;;0.60;0.60;;;;;;;;;;5011936;28;20489;-76
2024/04/01 13:29:32;;;;;;;0.73;0.60;;;;;;;;;;5012224;28;20441;-77
2024/04/01 13:32:03;;;;;;;0.63;0.57;;;;;;;;;;5011779;28;20429;-76
2024/04/01 13:34:29;;;;;;;1.13;0.70;;;;;;;;;;5011493;28;20466;-76
2024/04/01 13:37:15;;;;;;;0.90;0.70;;;;;;;;;;5012036;28;20416;-76
2024/04/01 13:40:00;;;;;;;2.50;0.77;;;;;;;;;;4994805;28;20814;-76
2024/04/01 13:42:36;;;;;;;1.20;1.10;;;;;;;;;;5012534;28;20992;-76
2024/04/01 13:45:05;;;;;;;0.93;0.80;;;;;;;;;;5012190;28;20505;-76
2024/04/01 13:47:54;;;;;;;0.80;0.60;;;;;;;;;;5012477;28;20750;-76
2024/04/01 13:50:24;;;;;;;0.77;0.67;;;;;;;;;;5012330;28;20441;-76
2024/04/01 13:53:09;;;;;;;0.80;0.70;;;;;;;;;;5012182;28;20940;-76
2024/04/01 13:55:54;;;;;;;0.70;0.60;;;;;;;;;;4994644;28;20787;-76
2024/04/01 13:58:24;;;;;;;1.80;0.80;;;;;;;;;;5012152;28;20406;-76
2024/04/01 14:00:59;;;;;;;0.87;0.77;;;;;;;;;;5012126;28;20445;-76
2024/04/01 14:03:48;;;;;;;1.00;0.80;;;;;;;;;;5012261;28;20436;-76
2024/04/01 14:06:33;;;;;;;0.60;0.60;;;;;;;;;;5012353;28;20414;-76
2024/04/01 14:08:59;;;;;;;0.60;0.60;;;;;;;;;;5011771;28;20756;-76
2024/04/01 14:11:28;;;;;;;1.00;0.70;;;;;;;;;;5011907;28;20779;-76
2024/04/01 14:13:57;;;;;;;0.80;0.67;;;;;;;;;;5011660;28;20469;-76
2024/04/01 14:16:22;;;;;;;1.93;0.70;;;;;;;;;;5012043;28;20925;-76
2024/04/01 14:18:48;;;;;;;0.60;0.60;;;;;;;;;;5012654;28;20410;-76
2024/04/01 14:21:15;;;;;;;2.07;0.87;;;;;;;;;;5012013;28;20430;-76
2024/04/01 14:23:41;;;;;;;0.70;0.70;;;;;;;;;;5011554;28;20513;-76
2024/04/01 14:26:07;;;;;;;1.53;0.70;;;;;;;;;;5012453;28;20517;-76
2024/04/01 14:28:33;;;;;;;1.83;1.00;;;;;;;;;;5012339;28;20460;-76
2024/04/01 14:30:59;;;;;;;2.03;0.80;;;;;;;;;;5011888;28;20988;-76
2024/04/01 14:33:25;;;;;;;1.00;0.77;;;;;;;;;;5011714;28;21035;-76
2024/04/01 14:35:51;;;;;;;2.57;1.07;;;;;;;;;;5012585;28;20401;-76
2024/04/01 14:38:18;;;;;;;2.63;1.40;;;;;;;;;;5015116;28;20402;-76
2024/04/01 14:40:45;;;;;;;1.90;1.30;;;;;;;;;;5015434;28;20520;-74
2024/04/01 14:43:12;;;;;;;0.97;0.87;;;;;;;;;;5020890;28;20402;-76
2024/04/01 14:45:38;;;;;;;0.80;0.70;;;;;;;;;;5015068;28;20418;-77
2024/04/01 14:48:07;;;;;;;1.37;0.90;;;;;;;;;;5015356;28;20410;-77
2024/04/01 14:50:34;;;;;;;1.00;0.93;;;;;;;;;;5015249;28;20441;-75
2024/04/01 14:53:00;;;;;;;1.23;0.90;;;;;;;;;;5015323;28;20804;-75
2024/04/01 14:55:26;;;;;;;1.60;0.90;;;;;;;;;;5015008;28;20782;-77
2024/04/01 14:57:56;;;;;;;1.30;1.00;;;;;;;;;;5015049;28;20409;-77
2024/04/01 15:00:25;;;;;;;1.40;0.93;;;;;;;;;;5014866;28;20418;-77
2024/04/01 15:02:51;;;;;;;1.73;1.10;;;;;;;;;;5015292;28;20414;-77
2024/04/01 15:05:17;;;;;;;1.03;0.93;;;;;;;;;;5015288;28;20464;-76
2024/04/01 15:07:43;;;;;;;2.20;1.10;;;;;;;;;;5015309;28;21028;-77
2024/04/01 15:10:14;;;;;;;1.57;1.00;;;;;;;;;;5015157;28;20442;-77
2024/04/01 15:12:40;;;;;;;0.90;0.80;;;;;;;;;;5015226;28;21098;-76
2024/04/01 15:15:08;;;;;;;0.90;0.80;;;;;;;;;;5014543;28;20406;-76
2024/04/01 15:17:34;;;;;;;0.80;0.70;;;;;;;;;;5015010;28;20472;-75
2024/04/01 15:20:00;;;;;;;1.00;1.00;;;;;;;;;;5014917;28;20407;-76
2024/04/01 15:22:26;;;;;;;0.87;0.77;;;;;;;;;;5015112;28;20538;-75
2024/04/01 15:24:52;;;;;;;0.90;0.80;;;;;;;;;;5014734;28;20411;-76
2024/04/01 15:27:19;;;;;;;0.97;0.80;;;;;;;;;;5014654;28;20963;-76
2024/04/01 15:29:45;;;;;;;0.80;0.70;;;;;;;;;;5014771;28;20410;-75
2024/04/01 15:32:13;;;;;;;0.80;0.77;;;;;;;;;;5014425;28;20438;-76
2024/04/01 15:34:40;;;;;;;0.83;0.73;;;;;;;;;;5013962;28;20418;-76
2024/04/01 15:37:07;;;;;;;0.90;0.70;;;;;;;;;;5014685;28;20410;-76
2024/04/01 15:39:33;;;;;;;1.17;1.00;;;;;;;;;;4996927;28;20499;-76
2024/04/01 15:41:59;;;;;;;1.00;0.90;;;;;;;;;;5014151;28;20426;-76
2024/04/01 15:44:29;;;;;;;0.90;0.77;;;;;;;;;;5014140;28;20418;-76
2024/04/01 15:46:55;;;;;;;2.27;1.10;;;;;;;;;;4996644;28;20429;-76
2024/04/01 15:49:21;;;;;;;1.40;1.10;;;;;;;;;;5013945;28;20429;-75
2024/04/01 15:51:47;;;;;;;1.10;1.00;;;;;;;;;;5014573;28;20426;-76
2024/04/01 15:54:13;;;;;;;0.90;0.80;;;;;;;;;;5013883;28;20512;-77
2024/04/01 15:56:39;;;;;;;4.23;1.00;;;;;;;;;;5014531;28;20406;-76
2024/04/01 15:59:05;;;;;;;1.37;1.27;;;;;;;;;;5014226;28;20398;-76
2024/04/01 16:01:31;;;;;;;1.33;1.33;;;;;;;;;;5013712;28;20968;-76
2024/04/01 16:03:57;;;;;;;1.77;1.30;;;;;;;;;;5013380;28;21167;-76
2024/04/01 16:06:27;;;;;;;1.07;0.80;;;;;;;;;;5013526;28;20413;-76
2024/04/01 16:08:54;;;;;;;1.30;1.20;;;;;;;;;;5014013;28;20937;-76
2024/04/01 16:11:20;;;;;;;0.90;0.80;;;;;;;;;;5013431;28;20495;-76
2024/04/01 16:13:47;;;;;;;1.33;1.07;;;;;;;;;;5013403;28;20827;-76
2024/04/01 16:16:14;;;;;;;1.13;1.03;;;;;;;;;;5013372;28;20441;-76
2024/04/01 16:18:41;;;;;;;1.70;1.30;;;;;;;;;;5013363;28;20557;-76
2024/04/01 16:21:10;;;;;;;2.00;1.30;;;;;;;;;;5013310;28;20453;-76
2024/04/01 16:23:39;;;;;;;1.03;0.93;;;;;;;;;;5013573;28;20501;-75
2024/04/01 16:26:06;;;;;;;2.10;1.00;;;;;;;;;;5013483;28;20418;-76
2024/04/01 16:28:32;;;;;;;1.37;0.80;;;;;;;;;;5014591;28;20423;-76
2024/04/01 16:31:03;;;;;;;0.90;0.80;;;;;;;;;;5013817;28;20843;-75
2024/04/01 16:33:29;;;;;;;1.17;0.80;;;;;;;;;;5013193;28;20468;-75
2024/04/01 16:35:56;;;;;;;1.10;0.90;;;;;;;;;;4996237;28;20422;-76
2024/04/01 16:38:22;;;;;;;2.07;0.93;;;;;;;;;;5013729;28;20406;-75
2024/04/01 16:40:50;;;;;;;1.47;1.20;;;;;;;;;;5013332;28;21008;-75
2024/04/01 16:43:18;;;;;;;1.13;1.10;;;;;;;;;;5012997;28;20410;-76
2024/04/01 16:45:44;;;;;;;2.43;0.83;;;;;;;;;;5014542;28;20932;-76
2024/04/01 16:48:10;;;;;;;2.03;0.90;;;;;;;;;;5013572;28;20824;-76
2024/04/01 16:50:36;;;;;;;1.27;0.83;;;;;;;;;;5012854;28;20528;-76
2024/04/01 16:53:02;;;;;;;1.37;1.30;;;;;;;;;;5013052;28;20462;-75
2024/04/01 16:55:29;;;;;;;1.60;1.30;;;;;;;;;;5012558;28;20866;-76
2024/04/01 16:57:56;;;;;;;1.20;1.10;;;;;;;;;;5012341;28;20406;-76
2024/04/01 17:00:22;;;;;;;1.53;0.90;;;;;;;;;;5012692;28;20489;-76
2024/04/01 17:02:48;;;;;;;1.53;1.40;;;;;;;;;;4995796;28;20465;-76
2024/04/01 17:05:15;;;;;;;1.70;1.20;;;;;;;;;;5012245;28;20821;-76
2024/04/01 17:07:42;;;;;;;1.60;1.53;;;;;;;;;;5012946;28;20493;-77
2024/04/01 17:10:11;;;;;;;2.27;1.57;;;;;;;;;;5013639;28;20418;-78
2024/04/01 17:12:38;;;;;;;3.70;1.47;;;;;;;;;;5012700;28;20552;-76
2024/04/01 17:15:05;;;;;;;2.40;1.43;;;;;;;;;;5053979;22;20579;-78
2024/04/01 17:17:31;;;;;;;2.40;1.20;;;;;;;;;;5034013;28;20401;-75
2024/04/01 17:20:01;;;;;;;1.50;1.40;;;;;;;;;;5031758;28;20402;-76
2024/04/01 17:22:27;;;;;;;1.50;1.37;;;;;;;;;;5033006;28;20408;-76
2024/04/01 17:24:55;;;;;;;2.20;1.43;;;;;;;;;;5032404;28;20417;-76
2024/04/01 17:27:21;;;;;;;3.37;1.73;;;;;;;;;;5032683;28;20401;-76
2024/04/01 17:29:47;;;;;;;2.53;1.43;;;;;;;;;;5033005;28;20765;-76
2024/04/01 17:32:14;;;;;;;2.20;1.50;;;;;;;;;;5033661;28;20879;-76
2024/04/01 17:34:40;;;;;;;2.30;1.50;;;;;;;;;;5031912;28;20449;-76
2024/04/01 17:37:06;;;;;;;2.27;1.20;;;;;;;;;;5031166;28;20467;-76
2024/04/01 17:39:32;;;;;;;7.87;4.80;;;;;;;;;;5033015;28;20988;-76
2024/04/01 17:42:00;;;;;;;6.37;3.70;;;;;;;;;;5031040;28;20428;-76
2024/04/01 17:44:26;;;;;;;5.70;2.37;;;;;;;;;;5032274;28;20429;-76
2024/04/01 17:46:52;;;;;;;2.30;1.30;;;;;;;;;;5031108;28;20413;-76
2024/04/01 17:49:20;;;;;;;3.53;1.20;;;;;;;;;;5031090;28;20464;-76
2024/04/01 17:51:47;;;;;;;1.30;1.13;;;;;;;;;;5032362;28;20444;-76
2024/04/01 17:54:13;;;;;;;1.33;1.23;;;;;;;;;;5031699;28;20468;-76
2024/04/01 17:56:39;;;;;;;1.50;1.27;;;;;;;;;;5031786;28;20417;-76
2024/04/01 17:59:05;;;;;;;1.03;0.93;;;;;;;;;;5031834;28;20401;-76
2024/04/01 18:01:31;;;;;;;1.70;1.10;;;;;;;;;;5032181;28;20432;-76
2024/04/01 18:03:58;;;;;;;1.10;1.03;;;;;;;;;;5031932;28;20468;-76
2024/04/01 18:06:24;;;;;;;1.37;1.27;;;;;;;;;;5030521;28;20429;-76
2024/04/01 18:08:50;;;;;;;3.60;1.20;;;;;;;;;;5030543;28;20413;-76
2024/04/01 18:11:19;;;;;;;1.57;1.10;;;;;;;;;;5035227;28;20810;-76
2024/04/01 18:13:45;;;;;;;1.10;1.07;;;;;;;;;;5034326;28;20476;-76
2024/04/01 18:16:11;;;;;;;1.27;1.20;;;;;;;;;;5035518;28;20871;-76
2024/04/01 18:18:37;;;;;;;1.50;1.50;;;;;;;;;;5035718;28;20793;-76
2024/04/01 18:21:04;;;;;;;2.97;1.57;;;;;;;;;;5035595;28;20417;-76
2024/04/01 18:23:30;;;;;;;6.00;2.90;;;;;;;;;;5035874;28;20455;-76
2024/04/01 18:25:59;;;;;;;4.70;2.03;;;;;;;;;;5035080;28;20785;-76
2024/04/01 18:28:25;;;;;;;3.13;2.17;;;;;;;;;;5037388;28;20421;-76
2024/04/01 18:30:51;;;;;;;4.27;2.50;;;;;;;;;;5037763;28;20424;-77
2024/04/01 18:33:17;;;;;;;3.80;2.00;;;;;;;;;;5035047;28;20991;-77
2024/04/01 18:35:45;;;;;;;2.33;1.90;;;;;;;;;;5036256;28;20410;-77
2024/04/01 18:38:11;;;;;;;1.23;1.20;;;;;;;;;;5037800;28;20424;-77
2024/04/01 18:40:46;;;;;;;2.97;2.23;;;;;;;;;;5046138;28;20411;-76
2024/04/01 18:43:19;;;;;;;3.50;1.63;;;;;;;;;;5054906;28;20404;-76
2024/04/01 18:45:46;;;;;;;2.57;2.00;;;;;;;;;;5055749;28;20488;-76
2024/04/01 18:48:12;;;;;;;3.60;1.80;;;;;;;;;;5055822;28;20849;-76
2024/04/01 18:50:38;;;;;;;8.13;2.63;;;;;;;;;;5044766;28;20479;-77
2024/04/01 18:53:04;;;;;;;4.90;1.80;;;;;;;;;;5037530;28;20952;-77
2024/04/01 18:55:30;;;;;;;2.07;1.93;;;;;;;;;;5034807;28;20421;-77
2024/04/01 18:57:56;;;;;;;2.20;1.70;;;;;;;;;;5035290;28;20448;-76
2024/04/01 19:00:22;;;;;;;4.70;2.50;;;;;;;;;;5033847;28;20436;-76
2024/04/01 19:02:48;;;;;;;3.23;1.83;;;;;;;;;;5035332;28;20920;-76
2024/04/01 19:05:14;;;;;;;1.83;1.60;;;;;;;;;;5034740;28;20905;-76
2024/04/01 19:07:40;;;;;;;1.93;1.70;;;;;;;;;;5034860;28;20504;-76
2024/04/01 19:10:07;;;;;;;2.67;1.60;;;;;;;;;;5034735;28;20413;-76
2024/04/01 19:12:35;;;;;;;2.93;1.50;;;;;;;;;;5034307;28;20424;-76
2024/04/01 19:15:01;;;;;;;1.63;1.53;;;;;;;;;;5034580;28;20456;-76
2024/04/01 19:17:27;;;;;;;4.30;2.23;;;;;;;;;;5034316;28;20517;-76
2024/04/01 19:19:53;;;;;;;5.33;2.57;;;;;;;;;;5034591;28;20891;-76
2024/04/01 19:22:19;;;;;;;9.40;4.30;;;;;;;;;;5033770;28;20759;-76
2024/04/01 19:24:46;;;;;;;7.47;3.93;;;;;;;;;;5033688;28;20429;-76
2024/04/01 19:27:12;;;;;;;8.00;3.20;;;;;;;;;;5034365;28;20417;-76
2024/04/01 19:29:38;;;;;;;4.87;2.70;;;;;;;;;;5034522;28;20500;-76
2024/04/01 19:32:04;;;;;;;5.10;2.83;;;;;;;;;;5034991;28;20441;-76
2024/04/01 19:34:30;;;;;;;6.60;3.10;;;;;;;;;;5033920;28;21040;-75
2024/04/01 19:36:56;;;;;;;3.37;1.83;;;;;;;;;;5034300;28;20409;-76
2024/04/01 19:39:22;;;;;;;2.20;1.40;;;;;;;;;;5033980;28;20409;-76
2024/04/01 19:41:48;;;;;;;2.67;1.80;;;;;;;;;;5034104;28;21060;-76
2024/04/01 19:44:16;;;;;;;5.27;2.50;;;;;;;;;;5032665;28;20437;-76
2024/04/01 19:46:42;;;;;;;4.30;2.10;;;;;;;;;;5034344;28;20417;-76
2024/04/01 19:49:07;;;;;;;3.10;1.87;;;;;;;;;;5033987;28;20421;-76
2024/04/01 19:51:35;;;;;;;2.47;1.90;;;;;;;;;;5034422;28;20541;-76
2024/04/01 19:54:08;;;;;;;3.10;2.20;;;;;;;;;;5032034;28;20461;-76